Time;durP1;ratioP1;P1;durP2;ratioP2;P2;SDS_P1;SDS_P2;PMS_P1;PMS_P2;Temp;Humidity;BMP_temperature;BMP_pressure;BME280_temperature;BME280_humidity;BME280_pressure;Samples;Min_cycle;Max_cycle;Signal;HPM_P1;HPM_P2
2023/09/28 00:02:54;;;;;;;10.70;8.32;;;18.30;99.90;;;;;;5009878;28;20049;-56
2023/09/28 00:05:20;;;;;;;9.02;8.13;;;18.30;99.90;;;;;;5005409;28;20056;-57
2023/09/28 00:07:46;;;;;;;11.00;8.82;;;18.40;99.90;;;;;;5004645;28;20042;-57
2023/09/28 00:10:17;;;;;;;9.57;8.57;;;18.40;99.90;;;;;;5006126;28;20493;-56
2023/09/28 00:12:48;;;;;;;9.45;8.55;;;18.30;99.90;;;;;;5006073;28;20112;-54
2023/09/28 00:15:15;;;;;;;12.30;9.02;;;18.30;99.90;;;;;;5005593;28;20054;-57
2023/09/28 00:17:41;;;;;;;9.95;8.48;;;18.30;99.90;;;;;;5004750;28;20104;-58
2023/09/28 00:20:17;;;;;;;9.30;8.38;;;18.30;99.90;;;;;;5005233;28;20041;-57
2023/09/28 00:22:47;;;;;;;9.85;8.85;;;18.30;99.90;;;;;;5005055;28;20233;-57
2023/09/28 00:25:13;;;;;;;9.88;8.70;;;18.40;99.90;;;;;;5005470;28;20052;-59
2023/09/28 00:27:39;;;;;;;10.65;8.73;;;18.30;99.90;;;;;;5011198;28;20441;-55
2023/09/28 00:30:09;;;;;;;12.75;9.35;;;18.30;99.90;;;;;;5024030;28;20041;-59
2023/09/28 00:32:35;;;;;;;10.45;9.20;;;18.30;99.90;;;;;;5024816;28;20550;-58
2023/09/28 00:35:03;;;;;;;9.90;9.00;;;18.30;99.90;;;;;;5025220;28;20060;-55
2023/09/28 00:37:30;;;;;;;10.07;9.07;;;18.30;99.90;;;;;;5024231;28;20088;-59
2023/09/28 00:39:55;;;;;;;10.05;9.02;;;18.30;99.90;;;;;;5024646;28;20046;-55
2023/09/28 00:42:22;;;;;;;13.07;9.45;;;18.30;99.90;;;;;;5025160;28;20087;-57
2023/09/28 00:44:48;;;;;;;10.55;9.18;;;18.30;99.90;;;;;;5024382;28;20045;-57
2023/09/28 00:47:14;;;;;;;10.90;9.88;;;18.30;99.90;;;;;;5025422;28;20041;-56
2023/09/28 00:49:42;;;;;;;10.48;9.38;;;18.30;99.90;;;;;;5024951;28;20124;-57
2023/09/28 00:52:08;;;;;;;10.63;9.52;;;18.30;99.90;;;;;;5006606;28;20396;-56
2023/09/28 00:54:35;;;;;;;11.98;9.40;;;18.30;99.90;;;;;;5023886;28;20037;-59
2023/09/28 00:57:01;;;;;;;11.40;9.60;;;18.20;99.90;;;;;;5018078;28;20140;-57
2023/09/28 00:59:27;;;;;;;10.48;9.40;;;18.20;99.90;;;;;;5026053;28;20125;-59
2023/09/28 01:01:55;;;;;;;11.73;9.40;;;18.30;99.90;;;;;;5025124;28;20046;-58
2023/09/28 01:04:22;;;;;;;10.10;9.07;;;18.30;99.90;;;;;;5024851;28;20041;-57
2023/09/28 01:06:48;;;;;;;11.50;9.57;;;18.30;99.90;;;;;;5024535;28;20073;-59
2023/09/28 01:09:15;;;;;;;10.73;9.52;;;18.30;99.90;;;;;;5024415;28;20646;-57
2023/09/28 01:11:41;;;;;;;11.90;8.75;;;18.20;99.90;;;;;;5024120;28;20053;-55
2023/09/28 01:14:07;;;;;;;12.43;9.57;;;18.20;99.90;;;;;;5007026;28;20627;-56
2023/09/28 01:16:33;;;;;;;9.80;8.80;;;18.20;99.90;;;;;;5007007;28;20057;-57
2023/09/28 01:18:59;;;;;;;10.40;9.40;;;18.20;99.90;;;;;;5023567;28;20045;-55
2023/09/28 01:21:25;;;;;;;10.23;9.23;;;18.30;99.90;;;;;;5023912;28;20045;-59
2023/09/28 01:23:51;;;;;;;11.55;9.10;;;18.30;99.90;;;;;;5024577;28;20046;-55
2023/09/28 01:26:17;;;;;;;10.15;9.15;;;18.20;99.90;;;;;;5024104;28;20049;-58
2023/09/28 01:28:43;;;;;;;10.43;9.43;;;18.20;99.90;;;;;;5006488;28;20130;-58
2023/09/28 01:31:08;;;;;;;15.23;10.00;;;18.20;99.90;;;;;;5007087;28;20080;-57
2023/09/28 01:33:34;;;;;;;11.35;10.07;;;18.20;99.90;;;;;;5024155;28;20084;-54
2023/09/28 01:36:00;;;;;;;10.65;9.55;;;18.20;99.90;;;;;;5022392;28;20045;-56
2023/09/28 01:38:31;;;;;;;11.57;9.40;;;18.10;99.90;;;;;;5022986;28;20106;-58
2023/09/28 01:40:57;;;;;;;10.55;9.45;;;18.10;99.90;;;;;;5023875;28;20090;-58
2023/09/28 01:43:23;;;;;;;13.43;9.93;;;18.10;99.90;;;;;;5023436;28;20045;-61
2023/09/28 01:45:49;;;;;;;10.43;9.32;;;18.00;99.90;;;;;;4990097;28;20048;-59
2023/09/28 01:48:15;;;;;;;10.27;9.02;;;18.10;99.90;;;;;;5023971;28;20114;-57
2023/09/28 01:50:41;;;;;;;10.95;9.05;;;18.10;99.90;;;;;;5011185;28;20269;-56
2023/09/28 01:53:07;;;;;;;12.05;9.27;;;18.00;99.90;;;;;;5002483;28;20103;-58
2023/09/28 01:55:32;;;;;;;10.65;9.55;;;18.10;99.90;;;;;;5018691;28;20053;-56
2023/09/28 01:57:59;;;;;;;9.70;8.57;;;18.10;99.90;;;;;;5013315;28;20052;-55
2023/09/28 02:00:25;;;;;;;10.45;8.63;;;18.10;99.90;;;;;;5023660;28;20049;-58
2023/09/28 02:02:56;;;;;;;9.30;8.32;;;18.20;99.90;;;;;;5022928;28;20087;-58
2023/09/28 02:05:22;;;;;;;11.88;8.57;;;18.10;99.90;;;;;;5024349;28;20052;-56
2023/09/28 02:07:49;;;;;;;9.25;8.15;;;18.20;99.90;;;;;;5023109;28;20060;-56
2023/09/28 02:10:15;;;;;;;9.15;8.25;;;18.10;99.90;;;;;;5023977;28;20067;-59
2023/09/28 02:12:45;;;;;;;8.38;7.57;;;18.10;99.90;;;;;;5024286;28;20049;-57
2023/09/28 02:15:14;;;;;;;10.68;7.82;;;18.10;99.90;;;;;;5022907;28;20057;-58
2023/09/28 02:17:41;;;;;;;9.20;8.30;;;18.20;99.90;;;;;;5006160;28;20057;-57
2023/09/28 02:20:10;;;;;;;8.48;7.30;;;18.10;99.90;;;;;;5002749;28;20107;-59
2023/09/28 02:22:46;;;;;;;9.93;7.57;;;18.10;99.90;;;;;;5002470;28;20095;-55
2023/09/28 02:25:20;;;;;;;8.98;8.07;;;18.10;99.90;;;;;;4986153;28;20054;-58
2023/09/28 02:27:46;;;;;;;10.05;8.05;;;18.10;99.90;;;;;;5003850;28;20081;-58
2023/09/28 02:30:15;;;;;;;9.20;7.85;;;18.10;99.90;;;;;;5003263;28;20383;-59
2023/09/28 02:32:44;;;;;;;9.75;8.35;;;18.10;99.90;;;;;;5003916;28;20042;-59
2023/09/28 02:35:13;;;;;;;10.27;7.32;;;18.10;99.90;;;;;;5003899;28;20049;-58
2023/09/28 02:37:39;;;;;;;8.93;7.88;;;18.00;99.90;;;;;;5002311;28;20072;-59
2023/09/28 02:40:06;;;;;;;9.35;8.35;;;18.00;99.90;;;;;;5003391;28;20053;-58
2023/09/28 02:42:33;;;;;;;10.30;8.27;;;18.00;99.90;;;;;;5003182;28;20049;-59
2023/09/28 02:44:59;;;;;;;9.75;7.90;;;17.90;99.90;;;;;;5003092;28;20077;-59
2023/09/28 02:47:26;;;;;;;11.35;8.05;;;17.90;99.90;;;;;;5002805;28;20152;-57
2023/09/28 02:49:52;;;;;;;9.75;7.78;;;17.90;99.90;;;;;;5002863;28;20069;-55
2023/09/28 02:52:18;;;;;;;10.70;8.20;;;18.00;99.90;;;;;;5002750;28;20492;-54
2023/09/28 02:54:43;;;;;;;8.60;7.70;;;18.00;99.90;;;;;;5003644;28;21243;-58
2023/09/28 02:57:09;;;;;;;13.07;7.80;;;17.80;99.90;;;;;;5012170;28;20067;-57
2023/09/28 02:59:36;;;;;;;9.13;7.80;;;17.90;99.90;;;;;;5005866;28;20116;-57
2023/09/28 03:02:03;;;;;;;8.07;7.22;;;17.80;99.90;;;;;;5002753;28;20050;-58
2023/09/28 03:04:31;;;;;;;9.13;8.23;;;17.80;99.90;;;;;;5003182;28;20654;-58
2023/09/28 03:06:57;;;;;;;9.02;7.80;;;17.80;99.90;;;;;;5002461;28;20081;-58
2023/09/28 03:09:23;;;;;;;9.80;8.18;;;17.70;99.90;;;;;;5003364;28;20046;-58
2023/09/28 03:11:49;;;;;;;10.52;8.00;;;17.60;99.90;;;;;;5002907;28;20663;-57
2023/09/28 03:14:15;;;;;;;11.40;8.10;;;17.50;99.90;;;;;;5002502;28;20078;-57
2023/09/28 03:16:41;;;;;;;12.38;8.02;;;17.60;99.90;;;;;;5002680;28;20061;-57
2023/09/28 03:19:08;;;;;;;9.23;7.50;;;17.60;99.90;;;;;;5002677;28;20631;-58
2023/09/28 03:21:34;;;;;;;7.93;7.13;;;17.50;99.90;;;;;;5002676;28;20050;-57
2023/09/28 03:24:01;;;;;;;8.93;7.88;;;17.40;99.90;;;;;;5004092;28;20057;-58
2023/09/28 03:26:30;;;;;;;8.23;7.18;;;17.40;99.90;;;;;;5002559;28;20046;-56
2023/09/28 03:28:56;;;;;;;9.80;7.20;;;17.50;99.90;;;;;;5003575;28;20065;-54
2023/09/28 03:31:27;;;;;;;8.57;7.28;;;17.40;99.90;;;;;;4986004;28;20038;-56
2023/09/28 03:33:54;;;;;;;12.57;8.00;;;17.50;99.90;;;;;;4984262;28;20057;-58
2023/09/28 03:36:19;;;;;;;8.68;7.78;;;17.50;99.90;;;;;;5001842;28;20053;-57
2023/09/28 03:38:46;;;;;;;9.32;7.25;;;17.50;99.90;;;;;;5002857;28;20045;-56
2023/09/28 03:41:12;;;;;;;8.98;7.55;;;17.40;99.90;;;;;;5001877;28;20042;-54
2023/09/28 03:43:38;;;;;;;10.30;7.20;;;17.40;99.90;;;;;;5001155;28;20096;-56
2023/09/28 03:46:04;;;;;;;9.38;7.50;;;17.50;99.90;;;;;;5000839;28;20751;-58
2023/09/28 03:48:30;;;;;;;9.98;7.95;;;17.40;99.90;;;;;;5002936;28;20129;-55
2023/09/28 03:50:56;;;;;;;9.18;7.55;;;17.40;99.90;;;;;;5001949;28;20132;-57
2023/09/28 03:53:22;;;;;;;8.63;7.55;;;17.40;99.90;;;;;;5002712;28;20042;-59
2023/09/28 03:55:49;;;;;;;9.63;8.13;;;17.50;99.90;;;;;;4991446;28;20114;-59
2023/09/28 03:58:15;;;;;;;10.07;7.60;;;17.40;99.90;;;;;;5009479;28;20416;-59
2023/09/28 04:00:41;;;;;;;10.82;7.97;;;17.40;99.90;;;;;;5022144;28;20052;-57
2023/09/28 04:03:07;;;;;;;11.23;8.10;;;17.40;99.90;;;;;;5025277;28;20128;-58
2023/09/28 04:05:33;;;;;;;9.23;7.78;;;17.40;99.90;;;;;;5025150;28;20046;-54
2023/09/28 04:07:59;;;;;;;13.05;8.20;;;17.30;99.90;;;;;;5023659;28;20715;-56
2023/09/28 04:10:25;;;;;;;9.38;7.50;;;17.40;99.90;;;;;;5025371;28;20048;-57
2023/09/28 04:12:52;;;;;;;9.45;8.40;;;17.40;99.90;;;;;;5025553;28;20037;-56
2023/09/28 04:15:18;;;;;;;12.05;8.10;;;17.40;99.90;;;;;;5023889;28;20103;-58
2023/09/28 04:17:43;;;;;;;11.05;8.45;;;17.40;99.90;;;;;;5024601;28;20041;-58
2023/09/28 04:20:10;;;;;;;9.80;8.80;;;17.30;99.90;;;;;;5025217;28;20454;-58
2023/09/28 04:22:35;;;;;;;10.35;8.30;;;17.40;99.90;;;;;;5023896;28;20041;-59
2023/09/28 04:25:02;;;;;;;9.80;8.80;;;17.20;99.90;;;;;;5024679;28;20075;-56
2023/09/28 04:27:28;;;;;;;11.32;8.95;;;17.20;99.90;;;;;;5025985;28;20242;-57
2023/09/28 04:29:54;;;;;;;11.05;7.93;;;17.20;99.90;;;;;;5023889;28;20121;-51
2023/09/28 04:32:20;;;;;;;13.20;8.95;;;17.10;99.90;;;;;;5024964;28;20091;-57
2023/09/28 04:34:46;;;;;;;16.00;8.95;;;17.10;99.90;;;;;;5025148;28;20080;-55
2023/09/28 04:37:12;;;;;;;10.68;8.68;;;17.10;99.90;;;;;;5025013;28;20041;-58
2023/09/28 04:39:38;;;;;;;11.57;8.95;;;17.00;99.90;;;;;;5007759;28;20049;-58
2023/09/28 04:42:04;;;;;;;13.07;8.95;;;17.00;99.90;;;;;;5023280;28;20041;-58
2023/09/28 04:44:30;;;;;;;12.50;9.02;;;16.80;99.90;;;;;;5025199;28;20061;-56
2023/09/28 04:46:56;;;;;;;12.13;8.93;;;16.80;99.90;;;;;;5025580;28;20651;-56
2023/09/28 04:49:21;;;;;;;10.75;8.63;;;16.70;99.90;;;;;;5024566;28;20052;-58
2023/09/28 04:51:47;;;;;;;10.05;9.05;;;16.70;99.90;;;;;;5024676;28;20483;-58
2023/09/28 04:54:14;;;;;;;10.32;9.13;;;16.70;99.90;;;;;;5025860;28;20063;-58
2023/09/28 04:56:40;;;;;;;10.30;9.20;;;16.70;99.90;;;;;;5018592;28;20053;-57
2023/09/28 04:59:06;;;;;;;10.88;9.25;;;16.70;99.90;;;;;;5010478;28;20042;-58
2023/09/28 05:01:32;;;;;;;13.02;9.32;;;16.70;99.90;;;;;;5005439;28;20405;-57
2023/09/28 05:03:57;;;;;;;16.00;9.18;;;16.70;99.90;;;;;;5005614;28;20131;-57
2023/09/28 05:06:23;;;;;;;11.80;10.00;;;16.60;99.90;;;;;;4986270;28;20620;-56
2023/09/28 05:08:49;;;;;;;10.50;9.40;;;16.60;99.90;;;;;;5004639;28;20042;-56
2023/09/28 05:11:15;;;;;;;12.00;9.55;;;16.60;99.90;;;;;;5004872;28;20136;-55
2023/09/28 05:13:42;;;;;;;11.40;9.20;;;16.50;99.90;;;;;;5004146;28;20125;-58
2023/09/28 05:16:07;;;;;;;12.18;9.18;;;16.40;99.90;;;;;;5004015;28;20482;-57
2023/09/28 05:18:35;;;;;;;14.35;9.38;;;16.50;99.90;;;;;;4986803;28;20131;-57
2023/09/28 05:21:00;;;;;;;14.13;9.38;;;16.40;99.90;;;;;;5003724;28;20103;-56
2023/09/28 05:23:26;;;;;;;12.57;9.63;;;16.40;99.90;;;;;;5003298;28;20042;-55
2023/09/28 05:25:52;;;;;;;12.00;9.48;;;16.40;99.90;;;;;;5003204;28;20771;-57
2023/09/28 05:28:17;;;;;;;10.98;9.07;;;16.50;99.90;;;;;;5003328;28;20081;-58
2023/09/28 05:30:43;;;;;;;10.35;9.20;;;16.40;99.90;;;;;;4987375;28;20046;-55
2023/09/28 05:33:08;;;;;;;13.40;9.07;;;16.30;99.90;;;;;;4986688;28;20476;-57
2023/09/28 05:35:34;;;;;;;12.00;9.35;;;16.20;99.90;;;;;;5003324;28;20097;-57
2023/09/28 05:37:59;;;;;;;12.52;9.38;;;16.30;99.90;;;;;;5004973;28;20048;-58
2023/09/28 05:40:25;;;;;;;11.82;9.18;;;16.30;99.90;;;;;;5003285;28;20045;-57
2023/09/28 05:42:51;;;;;;;12.40;9.07;;;16.30;99.90;;;;;;5004018;28;20049;-57
2023/09/28 05:45:17;;;;;;;10.60;9.07;;;16.30;99.90;;;;;;4986458;28;20050;-57
2023/09/28 05:47:43;;;;;;;13.00;9.27;;;16.30;99.90;;;;;;5003236;28;20050;-57
2023/09/28 05:50:08;;;;;;;13.30;9.23;;;16.30;99.90;;;;;;4985913;28;20133;-57
2023/09/28 05:52:34;;;;;;;10.30;8.63;;;16.20;99.90;;;;;;4985287;28;20046;-57
2023/09/28 05:55:00;;;;;;;11.30;9.48;;;16.10;99.90;;;;;;5004760;28;20042;-59
2023/09/28 05:57:26;;;;;;;12.90;9.18;;;16.10;99.90;;;;;;5013648;28;20098;-57
2023/09/28 05:59:52;;;;;;;13.63;9.07;;;16.10;99.90;;;;;;5004527;28;20067;-57
2023/09/28 06:02:19;;;;;;;13.27;8.82;;;16.10;99.90;;;;;;5006572;28;20121;-55
2023/09/28 06:04:45;;;;;;;13.27;8.82;;;16.20;99.90;;;;;;5013908;28;20049;-56
2023/09/28 06:07:11;;;;;;;11.75;8.52;;;16.20;99.90;;;;;;5021798;28;20049;-55
2023/09/28 06:09:37;;;;;;;11.43;8.73;;;16.30;99.90;;;;;;5004714;28;20046;-56
2023/09/28 06:12:03;;;;;;;12.00;8.80;;;16.30;99.90;;;;;;5019939;28;20373;-56
2023/09/28 06:14:29;;;;;;;11.90;8.27;;;16.30;99.90;;;;;;5015088;28;20049;-56
2023/09/28 06:16:54;;;;;;;11.85;7.90;;;16.40;99.90;;;;;;5012141;28;20463;-57
2023/09/28 06:19:20;;;;;;;12.68;8.73;;;16.30;99.90;;;;;;5008636;28;20460;-54
2023/09/28 06:21:46;;;;;;;11.93;7.38;;;16.40;99.90;;;;;;4995587;28;20046;-57
2023/09/28 06:24:11;;;;;;;13.38;7.47;;;16.40;99.90;;;;;;5001277;28;20045;-54
2023/09/28 06:26:37;;;;;;;12.68;7.57;;;16.50;99.90;;;;;;4984861;28;20524;-54
2023/09/28 06:29:04;;;;;;;14.93;6.95;;;16.50;99.90;;;;;;4986542;28;20589;-57
2023/09/28 06:31:30;;;;;;;11.27;6.63;;;16.60;99.90;;;;;;4985056;28;20042;-57
2023/09/28 06:33:56;;;;;;;13.98;7.13;;;16.50;99.90;;;;;;5005270;28;20219;-57
2023/09/28 06:36:24;;;;;;;14.07;7.00;;;16.60;99.90;;;;;;5012684;28;20127;-58
2023/09/28 06:38:50;;;;;;;11.13;6.80;;;16.60;99.90;;;;;;5011833;28;20034;-57
2023/09/28 06:41:16;;;;;;;13.52;7.13;;;16.70;99.90;;;;;;5010650;28;20158;-58
2023/09/28 06:43:41;;;;;;;11.77;6.50;;;16.60;99.90;;;;;;5012129;28;20065;-59
2023/09/28 06:46:08;;;;;;;15.23;7.32;;;16.70;99.90;;;;;;5023547;28;20052;-57
2023/09/28 06:48:34;;;;;;;13.93;6.50;;;16.70;99.90;;;;;;5023343;28;20045;-57
2023/09/28 06:51:00;;;;;;;11.48;7.10;;;16.60;99.90;;;;;;5020063;28;20041;-58
2023/09/28 06:53:26;;;;;;;10.80;7.60;;;16.70;99.90;;;;;;5003670;28;20045;-59
2023/09/28 06:55:52;;;;;;;10.90;8.05;;;16.80;99.90;;;;;;5005380;28;20042;-57
2023/09/28 06:58:19;;;;;;;15.70;8.05;;;16.80;99.90;;;;;;4994948;28;20053;-59
2023/09/28 07:00:48;;;;;;;15.75;7.57;;;16.80;99.90;;;;;;5003774;28;20054;-55
2023/09/28 07:03:14;;;;;;;14.50;7.90;;;16.90;99.90;;;;;;5002908;28;20034;-55
2023/09/28 07:05:40;;;;;;;13.35;7.15;;;16.90;99.90;;;;;;4983399;28;20052;-54
2023/09/28 07:08:06;;;;;;;13.45;7.15;;;16.90;99.90;;;;;;5002965;28;20120;-55
2023/09/28 07:10:33;;;;;;;14.52;7.20;;;17.00;99.90;;;;;;5002902;28;20046;-58
2023/09/28 07:13:05;;;;;;;14.05;7.03;;;17.00;99.90;;;;;;4985100;28;20041;-53
2023/09/28 07:15:31;;;;;;;11.38;7.80;;;17.10;99.90;;;;;;5003265;28;20050;-58
2023/09/28 07:17:57;;;;;;;12.77;7.30;;;17.10;99.90;;;;;;5003039;28;20392;-59
2023/09/28 07:20:25;;;;;;;14.30;7.50;;;17.20;99.90;;;;;;5001269;28;20051;-58
2023/09/28 07:22:51;;;;;;;12.57;6.65;;;17.20;99.90;;;;;;5002815;28;20081;-55
2023/09/28 07:25:17;;;;;;;14.15;7.20;;;17.20;99.90;;;;;;5002927;28;20676;-55
2023/09/28 07:27:43;;;;;;;12.18;6.93;;;17.20;99.90;;;;;;5003508;28;20094;-59
2023/09/28 07:30:11;;;;;;;15.73;6.53;;;17.20;99.90;;;;;;5013508;28;20464;-57
2023/09/28 07:32:40;;;;;;;14.27;6.32;;;17.20;99.90;;;;;;5003179;28;20094;-58
2023/09/28 07:35:06;;;;;;;12.43;6.47;;;17.30;99.90;;;;;;5004032;28;20052;-57
2023/09/28 07:37:35;;;;;;;11.73;5.70;;;17.30;99.90;;;;;;5021535;28;20046;-58
2023/09/28 07:40:01;;;;;;;19.40;5.82;;;17.40;99.90;;;;;;5026496;28;20096;-58
2023/09/28 07:42:27;;;;;;;13.35;5.45;;;17.40;99.90;;;;;;5019547;28;20585;-58
2023/09/28 07:44:52;;;;;;;13.88;4.93;;;17.70;99.90;;;;;;5018744;28;20124;-57
2023/09/28 07:47:19;;;;;;;17.90;5.78;;;17.60;99.90;;;;;;5024634;28;20091;-55
2023/09/28 07:49:45;;;;;;;17.17;4.63;;;17.70;99.90;;;;;;5011225;28;20112;-56
2023/09/28 07:52:11;;;;;;;18.88;4.72;;;17.80;99.90;;;;;;5005935;28;20511;-55
2023/09/28 07:54:38;;;;;;;17.38;4.72;;;17.80;99.90;;;;;;5006303;28;20042;-57
2023/09/28 07:57:09;;;;;;;21.23;5.05;;;17.90;99.90;;;;;;4993430;28;20045;-55
2023/09/28 07:59:35;;;;;;;14.50;4.32;;;17.90;99.90;;;;;;5007219;28;20056;-58
2023/09/28 08:02:01;;;;;;;18.52;5.07;;;17.90;99.90;;;;;;5007778;28;20137;-58
2023/09/28 08:04:27;;;;;;;19.45;5.32;;;17.90;99.90;;;;;;4997414;28;20544;-58
2023/09/28 08:06:54;;;;;;;18.40;4.40;;;17.90;99.90;;;;;;5005827;28;20134;-59
2023/09/28 08:09:20;;;;;;;22.90;4.93;;;18.00;99.90;;;;;;5013666;28;20053;-58
2023/09/28 08:11:48;;;;;;;18.02;4.40;;;18.10;99.90;;;;;;5009577;28;20123;-58
2023/09/28 08:14:15;;;;;;;19.13;4.63;;;18.10;99.90;;;;;;5014607;28;20119;-53
2023/09/28 08:16:48;;;;;;;20.45;4.53;;;18.20;99.90;;;;;;5007073;28;20054;-56
2023/09/28 08:19:14;;;;;;;19.63;4.60;;;18.30;99.90;;;;;;5006708;28;20146;-60
2023/09/28 08:21:40;;;;;;;23.58;4.75;;;18.40;99.90;;;;;;5006076;28;20393;-58
2023/09/28 08:24:08;;;;;;;18.10;4.90;;;18.50;99.90;;;;;;5005912;28;20049;-58
2023/09/28 08:26:34;;;;;;;19.30;4.15;;;18.60;99.90;;;;;;5006768;28;20132;-57
2023/09/28 08:29:03;;;;;;;19.67;4.25;;;18.60;99.90;;;;;;4988101;28;20057;-59
2023/09/28 08:31:30;;;;;;;19.05;4.70;;;18.60;99.90;;;;;;5005518;28;20763;-56
2023/09/28 08:33:58;;;;;;;19.48;4.35;;;18.70;99.90;;;;;;5005518;28;20132;-58
2023/09/28 08:36:24;;;;;;;22.85;4.88;;;18.70;99.90;;;;;;4988101;28;20054;-56
2023/09/28 08:38:50;;;;;;;18.10;4.15;;;18.70;99.90;;;;;;4988315;28;20834;-59
2023/09/28 08:41:26;;;;;;;21.55;4.57;;;18.80;99.90;;;;;;5005525;28;20080;-56
2023/09/28 08:44:04;;;;;;;18.05;4.78;;;18.90;99.90;;;;;;5006132;28;20045;-57
2023/09/28 08:46:32;;;;;;;23.88;5.03;;;19.00;99.90;;;;;;5018423;28;20053;-58
2023/09/28 08:49:01;;;;;;;18.77;4.78;;;19.10;99.90;;;;;;5025696;28;20049;-58
2023/09/28 08:51:29;;;;;;;21.98;4.70;;;19.20;99.90;;;;;;5024833;28;20121;-62
2023/09/28 08:53:55;;;;;;;18.10;4.07;;;19.10;99.90;;;;;;5024726;28;20051;-62
2023/09/28 08:56:21;;;;;;;17.73;3.90;;;19.10;99.90;;;;;;5018663;28;20121;-62
2023/09/28 08:58:47;;;;;;;24.55;5.03;;;19.10;99.90;;;;;;5014305;28;20939;-63
2023/09/28 09:01:13;;;;;;;19.20;4.57;;;19.00;99.90;;;;;;5005371;28;20633;-62
2023/09/28 09:03:40;;;;;;;17.63;4.35;;;19.20;99.90;;;;;;5003865;28;20034;-63
2023/09/28 09:06:08;;;;;;;19.70;5.03;;;19.50;99.90;;;;;;5004413;28;20414;-62
2023/09/28 09:08:35;;;;;;;23.83;4.70;;;19.70;99.90;;;;;;5005868;28;20147;-62
2023/09/28 09:11:01;;;;;;;23.20;4.20;;;20.00;99.90;;;;;;5003456;28;20049;-64
2023/09/28 09:13:28;;;;;;;19.35;4.15;;;19.90;99.90;;;;;;4989837;28;20046;-62
2023/09/28 09:15:55;;;;;;;22.00;4.68;;;19.70;99.90;;;;;;5005341;28;20086;-63
2023/09/28 09:18:24;;;;;;;18.17;3.92;;;19.60;99.90;;;;;;5010580;28;20060;-63
2023/09/28 09:20:54;;;;;;;19.25;4.40;;;19.50;99.90;;;;;;5023189;28;20099;-64
2023/09/28 09:23:20;;;;;;;17.02;3.75;;;19.60;99.90;;;;;;5006134;28;20565;-56
2023/09/28 09:25:47;;;;;;;21.20;4.13;;;19.70;99.90;;;;;;5021827;28;20231;-57
2023/09/28 09:28:28;;;;;;;19.83;4.68;;;19.80;99.90;;;;;;5024733;28;20041;-56
2023/09/28 09:30:55;;;;;;;21.65;4.35;;;19.80;99.90;;;;;;5014864;28;20356;-57
2023/09/28 09:33:22;;;;;;;17.60;4.05;;;19.80;99.90;;;;;;5003903;28;20042;-62
2023/09/28 09:35:49;;;;;;;16.92;3.88;;;19.70;99.90;;;;;;4986302;28;20054;-62
2023/09/28 09:38:14;;;;;;;15.90;4.07;;;19.60;99.90;;;;;;5004261;28;20091;-63
2023/09/28 09:40:40;;;;;;;18.73;3.85;;;19.50;99.90;;;;;;5014630;28;20053;-63
2023/09/28 09:43:10;;;;;;;21.20;4.00;;;19.50;99.90;;;;;;5013898;28;20033;-63
2023/09/28 09:45:38;;;;;;;20.77;3.90;;;19.50;99.90;;;;;;5017011;28;20061;-63
2023/09/28 09:48:06;;;;;;;23.90;5.18;;;19.70;99.90;;;;;;5003990;28;20381;-63
2023/09/28 09:50:35;;;;;;;18.70;3.90;;;19.60;99.90;;;;;;4993286;28;20364;-65
2023/09/28 09:53:04;;;;;;;22.50;4.53;;;19.70;99.90;;;;;;5009727;28;20057;-63
2023/09/28 09:55:31;;;;;;;20.85;4.53;;;19.60;99.90;;;;;;5013221;28;20613;-63
2023/09/28 09:58:03;;;;;;;19.90;5.00;;;19.70;99.90;;;;;;5016587;28;20488;-63
2023/09/28 10:00:33;;;;;;;19.85;3.95;;;19.70;99.90;;;;;;5023297;28;20072;-61
2023/09/28 10:03:03;;;;;;;20.00;3.85;;;19.60;99.90;;;;;;4992024;28;20045;-62
2023/09/28 10:05:31;;;;;;;21.42;4.43;;;19.50;99.90;;;;;;5010349;28;20060;-62
2023/09/28 10:07:58;;;;;;;20.08;4.22;;;19.40;99.90;;;;;;4998000;28;20049;-61
2023/09/28 10:10:27;;;;;;;20.05;4.20;;;19.40;99.90;;;;;;5022991;28;20041;-62
2023/09/28 10:12:54;;;;;;;17.83;3.90;;;19.40;99.90;;;;;;5022846;28;20041;-64
2023/09/28 10:15:21;;;;;;;15.60;3.83;;;19.30;99.90;;;;;;5015959;28;20743;-62
2023/09/28 10:17:47;;;;;;;14.57;3.70;;;19.40;99.90;;;;;;4992560;28;20156;-62
2023/09/28 10:20:14;;;;;;;16.65;3.78;;;19.70;99.90;;;;;;5021840;28;20061;-62
2023/09/28 10:22:47;;;;;;;16.58;3.80;;;19.90;99.90;;;;;;5013654;28;20045;-62
2023/09/28 10:25:15;;;;;;;17.60;3.97;;;20.20;99.90;;;;;;5017644;28;20053;-63
2023/09/28 10:27:47;;;;;;;18.55;3.50;;;20.30;99.90;;;;;;5013709;28;20153;-61
2023/09/28 10:30:20;;;;;;;17.30;3.65;;;20.30;99.90;;;;;;4996455;28;20085;-63
2023/09/28 10:32:45;;;;;;;15.93;3.15;;;20.20;99.90;;;;;;5003343;28;20177;-61
2023/09/28 10:35:20;;;;;;;19.77;4.25;;;20.30;99.90;;;;;;5001376;28;20489;-63
2023/09/28 10:38:17;;;;;;;18.02;3.70;;;20.40;99.90;;;;;;4985190;28;20056;-61
2023/09/28 10:41:05;;;;;;;20.13;4.63;;;20.30;99.90;;;;;;5011391;28;20041;-62
2023/09/28 10:43:34;;;;;;;16.92;4.20;;;20.20;99.90;;;;;;5022516;28;20051;-61
2023/09/28 10:46:04;;;;;;;15.73;3.83;;;20.10;99.90;;;;;;5023013;28;20128;-62
2023/09/28 10:48:44;;;;;;;16.05;3.67;;;20.00;99.90;;;;;;5023233;28;20041;-61
2023/09/28 10:51:15;;;;;;;18.67;3.60;;;19.90;99.90;;;;;;5013891;28;20037;-60
2023/09/28 10:53:41;;;;;;;23.48;4.10;;;19.80;99.90;;;;;;5004495;28;20231;-62
2023/09/28 10:56:08;;;;;;;14.90;3.72;;;19.80;99.90;;;;;;5011309;28;20056;-62
2023/09/28 10:58:38;;;;;;;21.20;3.70;;;19.70;99.90;;;;;;4989897;28;20046;-63
2023/09/28 11:01:06;;;;;;;13.98;4.13;;;19.70;99.90;;;;;;5000775;28;20120;-63
2023/09/28 11:03:32;;;;;;;17.23;3.85;;;19.60;99.90;;;;;;5011326;28;20046;-63
2023/09/28 11:05:59;;;;;;;19.02;4.38;;;19.60;99.90;;;;;;5010248;28;20048;-58
2023/09/28 11:08:25;;;;;;;13.25;3.83;;;19.70;99.90;;;;;;5023261;28;20042;-57
2023/09/28 11:10:51;;;;;;;16.02;3.35;;;19.90;99.90;;;;;;5009865;28;20061;-58
2023/09/28 11:13:17;;;;;;;18.63;4.30;;;20.00;99.90;;;;;;4990315;28;20061;-59
2023/09/28 11:15:44;;;;;;;15.60;4.22;;;20.00;99.90;;;;;;4992795;28;20155;-59
2023/09/28 11:18:09;;;;;;;17.77;4.53;;;20.00;99.90;;;;;;5026875;28;20647;-55
2023/09/28 11:20:35;;;;;;;15.10;3.30;;;20.20;99.90;;;;;;5026634;28;20049;-57
2023/09/28 11:23:01;;;;;;;14.23;3.88;;;20.30;99.90;;;;;;5025968;28;20037;-56
2023/09/28 11:25:27;;;;;;;21.65;3.80;;;20.20;99.90;;;;;;5009128;28;20045;-59
2023/09/28 11:27:53;;;;;;;19.27;4.75;;;20.10;99.90;;;;;;5026759;28;20041;-59
2023/09/28 11:30:19;;;;;;;17.25;3.88;;;20.00;99.90;;;;;;5026817;28;20041;-58
2023/09/28 11:32:50;;;;;;;12.70;3.47;;;20.10;99.90;;;;;;5008064;28;20080;-59
2023/09/28 11:35:16;;;;;;;17.33;3.95;;;20.00;99.90;;;;;;5016821;28;20053;-58
2023/09/28 11:37:42;;;;;;;13.18;4.00;;;20.10;99.90;;;;;;4989163;28;20058;-58
2023/09/28 11:40:09;;;;;;;18.73;4.38;;;20.20;99.90;;;;;;4987697;28;20044;-58
2023/09/28 11:42:38;;;;;;;18.55;3.92;;;20.20;99.90;;;;;;5006523;28;20397;-57
2023/09/28 11:45:05;;;;;;;16.05;3.92;;;20.30;99.90;;;;;;5006534;28;20144;-58
2023/09/28 11:47:30;;;;;;;19.58;3.95;;;20.40;99.90;;;;;;5005660;28;20137;-54
2023/09/28 11:49:56;;;;;;;16.70;3.72;;;20.30;99.90;;;;;;4988191;28;20129;-56
2023/09/28 11:52:21;;;;;;;13.25;3.35;;;20.30;99.90;;;;;;5006354;28;20062;-55
2023/09/28 11:54:47;;;;;;;19.98;3.63;;;20.40;99.90;;;;;;5006624;28;20041;-58
2023/09/28 11:57:16;;;;;;;15.30;3.85;;;20.20;99.90;;;;;;4997670;28;20068;-59
2023/09/28 11:59:42;;;;;;;18.08;3.70;;;20.10;99.90;;;;;;5025940;28;20464;-58
2023/09/28 12:02:08;;;;;;;19.45;4.25;;;20.10;99.90;;;;;;5006088;28;20053;-60
2023/09/28 12:04:35;;;;;;;16.40;3.60;;;20.20;99.90;;;;;;5014849;28;20446;-59
2023/09/28 12:07:06;;;;;;;15.60;3.95;;;20.20;99.90;;;;;;4993416;28;20195;-58
2023/09/28 12:09:32;;;;;;;13.63;3.38;;;20.30;99.90;;;;;;5005864;28;20464;-59
2023/09/28 12:11:57;;;;;;;14.48;3.38;;;20.20;99.90;;;;;;4992168;28;20049;-58
2023/09/28 12:14:23;;;;;;;20.38;4.32;;;20.20;99.90;;;;;;5013490;28;20089;-54
2023/09/28 12:16:48;;;;;;;13.90;3.33;;;20.20;99.90;;;;;;5012118;28;20057;-58
2023/09/28 12:19:14;;;;;;;14.63;3.35;;;20.20;99.90;;;;;;5011192;28;20436;-59
2023/09/28 12:21:40;;;;;;;12.73;3.15;;;20.20;99.90;;;;;;5003292;28;20037;-58
2023/09/28 12:24:06;;;;;;;12.70;3.85;;;20.20;99.90;;;;;;4988374;28;20910;-59
2023/09/28 12:26:33;;;;;;;18.95;3.80;;;20.20;99.90;;;;;;4988323;28;20053;-56
2023/09/28 12:28:59;;;;;;;18.60;3.63;;;20.30;99.90;;;;;;5005250;28;20053;-56
2023/09/28 12:31:25;;;;;;;18.13;4.28;;;20.20;99.90;;;;;;5004676;28;20042;-55
2023/09/28 12:33:51;;;;;;;18.50;3.80;;;20.20;99.90;;;;;;5006010;28;20057;-56
2023/09/28 12:36:16;;;;;;;13.68;4.00;;;20.30;99.90;;;;;;5004931;28;20477;-51
2023/09/28 12:38:42;;;;;;;15.05;4.15;;;20.30;99.90;;;;;;4987021;28;20049;-58